createdAt,value
2019-04-11T00:03:46.225Z,6.50
2019-04-11T00:08:38.878Z,6.50
2019-04-11T00:13:36.603Z,6.50
2019-04-11T00:18:21.133Z,6.30
2019-04-11T00:23:12.572Z,6.30
2019-04-11T00:28:03.999Z,6.20
2019-04-11T00:32:54.486Z,6.00
2019-04-11T00:37:46.048Z,5.90
2019-04-11T00:42:37.459Z,5.90
2019-04-11T00:47:29.427Z,5.80
2019-04-11T00:52:20.884Z,5.80
2019-04-11T00:57:11.283Z,5.80
2019-04-11T01:02:02.698Z,5.50
2019-04-11T01:06:54.953Z,5.50
2019-04-11T01:11:46.389Z,5.40
2019-04-11T01:16:37.394Z,5.20
2019-04-11T01:21:29.120Z,5.00
2019-04-11T01:26:19.761Z,5.10
2019-04-11T01:31:12.136Z,5.00
2019-04-11T01:36:03.308Z,4.90
2019-04-11T01:40:54.655Z,4.80
2019-04-11T01:45:46.185Z,4.70
2019-04-11T01:50:37.608Z,4.60
2019-04-11T01:55:30.012Z,4.40
2019-04-11T02:00:21.399Z,4.40
2019-04-11T02:05:13.094Z,4.30
2019-04-11T02:10:04.967Z,4.30
2019-04-11T02:14:56.194Z,4.20
2019-04-11T02:19:47.900Z,4.10
2019-04-11T02:24:39.434Z,4.10
2019-04-11T02:29:30.469Z,4.10
2019-04-11T02:34:23.667Z,3.90
2019-04-11T02:39:24.511Z,3.80
2019-04-11T02:44:44.085Z,3.70
2019-04-11T02:49:03.071Z,3.70
2019-04-11T02:53:53.815Z,3.40
2019-04-11T02:58:40.565Z,3.30
2019-04-11T03:03:34.301Z,3.20
2019-04-11T03:08:30.171Z,3.20
2019-04-11T03:13:13.679Z,3.20
2019-04-11T03:18:40.183Z,2.90
2019-04-11T03:23:10.706Z,2.80
2019-04-11T03:27:53.360Z,2.80
2019-04-11T03:43:26.019Z,2.40
2019-04-11T03:48:12.202Z,2.40
2019-04-11T03:52:12.702Z,2.40
2019-04-11T03:57:07.359Z,2.40
2019-04-11T04:01:59.974Z,2.40
2019-04-11T04:06:50.173Z,2.10
2019-04-11T04:11:40.405Z,2.10
2019-04-11T04:16:52.445Z,2.00
2019-04-11T04:21:25.328Z,1.90
2019-04-11T04:26:16.435Z,1.80
2019-04-11T04:31:11.233Z,1.80
2019-04-11T04:36:01.771Z,1.70
2019-04-11T04:41:38.244Z,1.50
2019-04-11T04:46:52.385Z,1.50
2019-04-11T04:50:31.750Z,1.50
2019-04-11T04:55:30.216Z,1.60
2019-04-11T05:00:15.660Z,1.80
2019-04-11T05:05:06.948Z,1.70
2019-04-11T05:10:00.460Z,2.10
2019-04-11T05:14:55.898Z,2.80
2019-04-11T05:19:41.077Z,4.50
2019-04-11T05:24:35.070Z,6.50
2019-04-11T05:29:27.415Z,8.20
2019-04-11T05:34:18.864Z,9.80
2019-04-11T05:39:09.384Z,9.40
2019-04-11T05:44:12.293Z,8.30
2019-04-11T05:49:05.292Z,6.80
2019-04-11T05:53:55.421Z,6.00
2019-04-11T05:58:47.920Z,5.60
2019-04-11T06:03:34.202Z,5.40
2019-04-11T06:08:32.357Z,5.20
2019-04-11T06:13:20.463Z,5.10
2019-04-11T06:18:32.211Z,4.90
2019-04-11T06:23:01.002Z,4.90
2019-04-11T06:27:53.566Z,4.90
2019-04-11T06:32:44.335Z,4.90
2019-04-11T06:37:36.513Z,5.00
2019-04-11T06:42:32.037Z,5.10
2019-04-11T06:47:19.193Z,5.20
2019-04-11T06:52:13.019Z,5.20
2019-04-11T06:57:03.046Z,5.10
2019-04-11T07:01:55.457Z,5.30
2019-04-11T07:06:48.481Z,5.50
2019-04-11T07:11:43.016Z,5.60
2019-04-11T07:16:34.676Z,5.70
2019-04-11T07:21:25.775Z,5.90
2019-04-11T07:26:17.349Z,6.20
2019-04-11T07:31:07.580Z,6.40
2019-04-11T07:36:01.924Z,6.70
2019-04-11T07:40:52.347Z,6.90
2019-04-11T07:45:43.704Z,6.80
2019-04-11T07:50:35.601Z,7.00
2019-04-11T07:55:32.470Z,7.10
2019-04-11T08:00:51.329Z,7.00
2019-04-11T08:05:15.753Z,7.10
2019-04-11T08:10:06.773Z,7.40
2019-04-11T08:14:59.633Z,7.10
2019-04-11T08:19:53.609Z,7.00
2019-04-11T08:24:45.127Z,7.20
2019-04-11T08:29:35.757Z,7.30
2019-04-11T08:39:25.235Z,7.70
2019-04-11T08:44:19.415Z,7.30
2019-04-11T08:49:08.369Z,7.40
2019-04-11T08:53:59.932Z,7.40
2019-04-11T08:58:51.695Z,7.60
2019-04-11T09:04:04.226Z,7.80
2019-04-11T09:08:38.682Z,7.60
2019-04-11T09:13:29.855Z,7.90
2019-04-11T09:18:23.330Z,7.90
2019-04-11T09:23:14.919Z,8.10
2019-04-11T09:28:06.426Z,8.10
2019-04-11T09:33:00.645Z,8.20
2019-04-11T09:37:54.070Z,8.10
2019-04-11T09:42:45.778Z,8.30
2019-04-11T09:47:37.997Z,8.60
2019-04-11T09:52:28.944Z,8.70
2019-04-11T09:57:20.322Z,8.50
2019-04-11T10:02:11.076Z,8.60
2019-04-11T10:07:05.460Z,8.60
2019-04-11T10:11:59.209Z,8.80
2019-04-11T10:16:50.790Z,8.90
2019-04-11T10:21:42.086Z,9.00
2019-04-11T10:26:32.652Z,9.00
2019-04-11T10:31:24.177Z,9.10
2019-04-11T10:36:15.344Z,9.10
2019-04-11T10:41:06.965Z,9.20
2019-04-11T10:45:59.375Z,9.40
2019-04-11T10:50:51.357Z,9.50
2019-04-11T10:55:44.443Z,9.50
2019-04-11T11:00:35.494Z,9.40
2019-04-11T11:10:18.191Z,9.30
2019-04-11T11:15:10.039Z,9.50
2019-04-11T11:20:36.190Z,9.50
2019-04-11T11:24:53.245Z,9.60
2019-04-11T11:29:47.708Z,9.80
2019-04-11T11:34:37.414Z,9.80
2019-04-11T11:39:33.620Z,10.10
2019-04-11T11:44:25.148Z,10.00
2019-04-11T11:49:53.683Z,10.20
2019-04-11T11:54:07.570Z,10.20
2019-04-11T11:59:03.227Z,10.10
2019-04-11T12:03:51.007Z,10.20
2019-04-11T12:08:51.447Z,10.30
2019-04-11T12:13:34.395Z,10.30
2019-04-11T12:18:26.797Z,10.40
2019-04-11T12:23:17.813Z,10.60
2019-04-11T12:28:15.827Z,10.60
2019-04-11T12:33:01.304Z,10.60
2019-04-11T12:37:56.269Z,10.70
2019-04-11T12:42:42.625Z,10.70
2019-04-11T12:47:38.210Z,10.50
2019-04-11T12:52:25.508Z,10.50
2019-04-11T12:57:16.686Z,10.60
2019-04-11T13:02:12.502Z,10.80
2019-04-11T13:07:03.941Z,10.70
2019-04-11T13:11:55.411Z,11.40
2019-04-11T13:16:46.806Z,11.30
2019-04-11T13:21:38.197Z,11.40
2019-04-11T13:26:29.519Z,11.20
2019-04-11T13:31:20.983Z,11.10
2019-04-11T13:36:12.344Z,11.20
2019-04-11T13:41:05.940Z,11.20
2019-04-11T13:45:57.460Z,11.10
2019-04-11T13:50:48.862Z,11.10
2019-04-11T13:55:42.704Z,11.10
2019-04-11T14:00:33.868Z,11.20
2019-04-11T14:05:25.284Z,11.10
2019-04-11T14:10:16.620Z,11.30
2019-04-11T14:15:10.304Z,11.20
2019-04-11T14:20:03.986Z,11.30
2019-04-11T14:24:57.625Z,11.30
2019-04-11T14:29:51.312Z,11.20
2019-04-11T14:34:42.777Z,11.30
2019-04-11T14:39:34.246Z,11.40
2019-04-11T14:44:25.573Z,11.20
2019-04-11T14:49:19.407Z,11.20
2019-04-11T14:54:18.417Z,11.30
2019-04-11T14:59:02.298Z,11.30
2019-04-11T15:03:53.500Z,11.20
2019-04-11T15:08:48.525Z,11.20
2019-04-11T15:13:36.410Z,11.20
2019-04-11T15:18:28.159Z,11.20
2019-04-11T15:23:19.071Z,11.10
2019-04-11T15:28:13.702Z,11.10
2019-04-11T15:33:02.412Z,10.90
2019-04-11T15:37:53.340Z,10.90
2019-04-11T15:42:44.943Z,11.00
2019-04-11T15:47:37.488Z,10.80
2019-04-11T15:52:27.741Z,10.80
2019-04-11T15:57:19.061Z,10.60
2019-04-11T16:02:10.579Z,10.60
2019-04-11T16:07:01.989Z,10.70
2019-04-11T16:11:53.511Z,10.70
2019-04-11T16:16:44.555Z,10.70
2019-04-11T16:21:36.110Z,10.70
2019-04-11T16:26:27.569Z,10.70
2019-04-11T16:31:18.953Z,10.70
2019-04-11T16:36:10.016Z,10.60
2019-04-11T16:41:03.577Z,10.30
2019-04-11T16:45:55.931Z,10.30
2019-04-11T16:50:46.536Z,10.20
2019-04-11T16:55:44.023Z,10.50
2019-04-11T17:00:31.522Z,10.50
2019-04-11T17:05:27.413Z,10.80
2019-04-11T17:10:14.320Z,10.70
2019-04-11T17:15:05.718Z,10.20
2019-04-11T17:19:57.054Z,10.30
2019-04-11T17:24:49.368Z,9.90
2019-04-11T17:29:39.957Z,9.80
2019-04-11T17:34:33.460Z,9.60
2019-04-11T17:39:22.695Z,9.60
2019-04-11T17:44:14.056Z,9.60
2019-04-11T17:49:05.529Z,9.40
2019-04-11T17:53:56.885Z,9.10
2019-04-11T17:58:48.309Z,8.90
2019-04-11T18:03:43.195Z,8.80
2019-04-11T18:08:31.183Z,8.50
2019-04-11T18:13:22.418Z,8.30
2019-04-11T18:18:13.910Z,8.00
2019-04-11T18:27:57.104Z,7.80
2019-04-11T18:32:50.244Z,7.50
2019-04-11T18:37:41.715Z,7.60
2019-04-11T18:42:33.044Z,7.40
2019-04-11T18:52:29.176Z,7.30
2019-04-11T18:57:07.198Z,7.10
2019-04-11T19:01:58.628Z,6.90
2019-04-11T19:06:50.022Z,6.70
2019-04-11T19:11:41.413Z,6.50
2019-04-11T19:16:32.801Z,6.20
2019-04-11T19:21:24.221Z,5.90
2019-04-11T19:26:15.956Z,5.90
2019-04-11T19:31:06.995Z,5.80
2019-04-11T19:35:58.338Z,5.60
2019-04-11T19:40:49.715Z,5.50
2019-04-11T19:45:41.141Z,5.40
2019-04-11T19:50:32.548Z,5.40
2019-04-11T19:55:23.922Z,5.20
2019-04-11T20:00:15.334Z,5.20
2019-04-11T20:05:06.761Z,5.20
2019-04-11T20:10:02.105Z,5.10
2019-04-11T20:14:49.586Z,4.90
2019-04-11T20:19:40.985Z,4.70
2019-04-11T20:24:32.482Z,4.50
2019-04-11T20:29:23.818Z,4.40
2019-04-11T20:34:28.582Z,4.00
2019-04-11T20:39:16.018Z,3.80
2019-04-11T20:44:02.620Z,3.70
2019-04-11T20:48:55.313Z,3.60
2019-04-11T20:53:45.285Z,3.40
2019-04-11T20:58:39.544Z,3.30
2019-04-11T21:03:31.110Z,3.20
2019-04-11T21:08:19.598Z,3.20
2019-04-11T21:13:10.905Z,3.10
2019-04-11T21:18:02.354Z,3.00
2019-04-11T21:22:55.036Z,2.90
2019-04-11T21:27:45.492Z,2.80
2019-04-11T21:32:38.724Z,2.70
2019-04-11T21:37:31.067Z,2.60
2019-04-11T21:42:23.850Z,2.50
2019-04-11T21:47:15.366Z,2.50
2019-04-11T21:52:06.730Z,2.40
2019-04-11T21:56:58.098Z,2.30
2019-04-11T22:06:52.350Z,2.30
2019-04-11T22:11:45.905Z,2.20
2019-04-11T22:16:37.348Z,2.20
2019-04-11T22:21:28.770Z,2.30
2019-04-11T22:26:22.375Z,2.50
2019-04-11T22:31:13.776Z,2.80
2019-04-11T22:36:07.464Z,2.90
2019-04-11T22:41:03.205Z,3.10
2019-04-11T22:45:51.467Z,3.20
2019-04-11T22:50:41.867Z,3.20
2019-04-11T22:55:33.241Z,3.20
2019-04-11T23:00:24.587Z,3.30
2019-04-11T23:05:18.516Z,3.30
2019-04-11T23:10:07.466Z,3.30
2019-04-11T23:14:58.750Z,3.30
2019-04-11T23:19:50.167Z,3.30
2019-04-11T23:24:43.811Z,3.30
2019-04-11T23:29:37.445Z,3.30
2019-04-11T23:34:31.127Z,3.10
2019-04-11T23:39:24.022Z,3.30
2019-04-11T23:49:07.648Z,3.10
2019-04-11T23:54:01.274Z,2.90
2019-04-11T23:58:52.701Z,2.90
